Time;durP1;ratioP1;P1;durP2;ratioP2;P2;SDS_P1;SDS_P2;PMS_P1;PMS_P2;Temp;Humidity;BMP_temperature;BMP_pressure;BME280_temperature;BME280_humidity;BME280_pressure;Samples;Min_cycle;Max_cycle;Signal;HPM_P1;HPM_P2
2021/09/02 00:02:22;;;;;;;4.45;1.45;;;13.30;72.00;;;;;;4868382;29;20013;-66
2021/09/02 00:04:49;;;;;;;3.22;1.27;;;13.30;71.90;;;;;;4870691;29;20029;-67
2021/09/02 00:07:15;;;;;;;6.60;1.85;;;13.30;72.00;;;;;;4871047;29;20034;-67
2021/09/02 00:09:42;;;;;;;6.20;2.10;;;13.30;71.90;;;;;;4869671;29;20026;-67
2021/09/02 00:12:08;;;;;;;7.88;1.52;;;13.30;71.90;;;;;;4871009;29;20017;-66
2021/09/02 00:14:35;;;;;;;4.82;1.35;;;13.30;71.90;;;;;;4872036;29;20028;-68
2021/09/02 00:17:02;;;;;;;8.68;2.20;;;13.30;72.00;;;;;;4871221;29;20036;-68
2021/09/02 00:19:29;;;;;;;3.90;1.30;;;13.30;72.10;;;;;;4871378;29;20037;-68
2021/09/02 00:21:55;;;;;;;5.65;1.42;;;13.30;72.10;;;;;;4868514;29;20059;-68
2021/09/02 00:24:21;;;;;;;2.88;1.38;;;13.30;72.20;;;;;;4867244;29;20030;-68
2021/09/02 00:26:48;;;;;;;3.63;1.27;;;13.40;72.10;;;;;;4868985;29;20032;-68
2021/09/02 00:29:14;;;;;;;7.35;2.10;;;13.30;72.00;;;;;;4867340;29;20049;-67
2021/09/02 00:31:41;;;;;;;6.97;1.70;;;13.30;72.00;;;;;;4868870;29;20022;-68
2021/09/02 00:34:07;;;;;;;6.35;1.98;;;13.30;72.00;;;;;;4869100;29;20037;-67
2021/09/02 00:36:34;;;;;;;4.97;2.47;;;13.30;72.00;;;;;;4871784;29;20028;-65
2021/09/02 00:39:00;;;;;;;6.88;1.55;;;13.30;72.00;;;;;;4869404;29;20049;-66
2021/09/02 00:41:27;;;;;;;3.80;1.83;;;13.30;72.10;;;;;;4866957;29;20076;-65
2021/09/02 00:43:53;;;;;;;7.15;2.28;;;13.20;72.00;;;;;;4867881;29;20021;-66
2021/09/02 00:46:20;;;;;;;8.38;2.40;;;13.20;71.90;;;;;;4872609;29;20437;-65
2021/09/02 00:48:51;;;;;;;5.68;2.67;;;13.20;71.80;;;;;;4868517;29;20025;-65
2021/09/02 00:51:19;;;;;;;10.98;2.95;;;13.20;71.90;;;;;;4872689;29;20029;-68
2021/09/02 00:53:51;;;;;;;6.05;1.90;;;13.20;71.80;;;;;;4870332;29;20044;-67
2021/09/02 00:56:18;;;;;;;6.40;2.38;;;13.10;71.70;;;;;;4868435;29;20026;-65
2021/09/02 00:58:45;;;;;;;5.07;2.28;;;13.10;71.60;;;;;;4865588;29;20806;-68
2021/09/02 01:01:12;;;;;;;6.88;2.33;;;13.10;71.60;;;;;;4869021;29;20029;-68
2021/09/02 01:03:39;;;;;;;11.10;2.35;;;13.10;71.60;;;;;;4869776;29;20583;-68
2021/09/02 01:06:05;;;;;;;5.35;2.92;;;13.00;71.50;;;;;;4868076;29;20769;-67
2021/09/02 01:08:32;;;;;;;7.38;1.85;;;13.00;71.50;;;;;;4868045;29;20085;-65
2021/09/02 01:10:58;;;;;;;5.82;2.00;;;13.00;71.50;;;;;;4867831;29;20053;-65
2021/09/02 01:13:25;;;;;;;6.00;2.20;;;13.00;71.40;;;;;;4870262;29;20061;-67
2021/09/02 01:15:55;;;;;;;8.07;3.85;;;12.90;71.60;;;;;;4867137;29;20041;-63
2021/09/02 01:18:21;;;;;;;5.65;2.10;;;12.90;71.60;;;;;;4869641;29;20065;-66
2021/09/02 01:20:48;;;;;;;7.68;1.77;;;12.90;71.60;;;;;;4867490;29;20034;-67
2021/09/02 01:23:21;;;;;;;4.82;2.25;;;12.80;72.30;;;;;;4867869;29;20080;-68
2021/09/02 01:25:47;;;;;;;4.82;2.30;;;12.80;71.60;;;;;;4869175;29;20036;-66
2021/09/02 01:28:15;;;;;;;5.22;2.63;;;12.80;71.60;;;;;;4870283;29;20073;-65
2021/09/02 01:30:43;;;;;;;7.18;3.78;;;12.70;71.50;;;;;;4866981;29;20485;-68
2021/09/02 01:33:15;;;;;;;5.82;3.08;;;12.70;71.50;;;;;;4864922;29;20076;-68
2021/09/02 01:35:42;;;;;;;6.18;2.60;;;12.70;71.60;;;;;;4868886;29;20020;-67
2021/09/02 01:38:09;;;;;;;7.35;2.83;;;12.70;71.70;;;;;;4869585;29;20393;-63
2021/09/02 01:40:37;;;;;;;6.15;2.83;;;12.60;71.90;;;;;;4865619;29;20540;-67
2021/09/02 01:43:05;;;;;;;4.07;2.42;;;12.60;71.80;;;;;;4867017;29;20017;-65
2021/09/02 01:45:32;;;;;;;16.83;3.38;;;12.60;71.90;;;;;;4869967;29;20052;-66
2021/09/02 01:48:00;;;;;;;6.40;3.35;;;12.60;72.30;;;;;;4869675;29;20021;-65
2021/09/02 01:50:28;;;;;;;5.63;2.63;;;12.60;72.40;;;;;;4869574;29;20112;-67
2021/09/02 01:52:57;;;;;;;10.23;3.10;;;12.60;72.20;;;;;;4865999;29;20477;-67
2021/09/02 01:56:03;;;;;;;8.07;3.50;;;12.60;72.20;;;;;;4866255;29;20030;-65
2021/09/02 01:59:09;;;;;;;7.25;3.10;;;12.60;72.40;;;;;;4866400;29;20119;-65
2021/09/02 02:02:15;;;;;;;8.05;4.50;;;12.50;72.30;;;;;;4868568;29;20069;-68
2021/09/02 02:05:21;;;;;;;10.38;2.67;;;12.50;72.10;;;;;;4870799;29;20057;-64
2021/09/02 02:08:27;;;;;;;3.47;2.47;;;12.50;72.10;;;;;;4868111;29;20032;-64
2021/09/02 02:11:33;;;;;;;6.35;3.03;;;12.40;72.00;;;;;;4864579;29;20288;-64
2021/09/02 02:14:39;;;;;;;6.20;3.70;;;12.40;72.20;;;;;;4871117;29;20425;-67
2021/09/02 02:17:45;;;;;;;8.77;4.20;;;12.40;72.40;;;;;;4868338;29;20026;-67
2021/09/02 02:20:51;;;;;;;12.07;4.10;;;12.30;72.30;;;;;;4867598;29;20051;-63
2021/09/02 02:23:57;;;;;;;7.95;4.38;;;12.30;72.30;;;;;;4868444;29;20022;-68
2021/09/02 02:27:03;;;;;;;8.30;4.25;;;12.30;72.40;;;;;;4866142;29;20033;-68
2021/09/02 02:30:09;;;;;;;9.02;3.58;;;12.30;72.40;;;;;;4865741;29;20072;-66
2021/09/02 02:33:15;;;;;;;7.35;3.70;;;12.30;72.50;;;;;;4868364;29;20382;-64
2021/09/02 02:36:21;;;;;;;8.82;3.83;;;12.30;72.40;;;;;;4867157;29;20035;-64
2021/09/02 02:39:27;;;;;;;8.47;4.07;;;12.30;72.60;;;;;;4869311;29;20045;-65
2021/09/02 02:42:34;;;;;;;6.68;3.13;;;12.30;72.80;;;;;;4866541;29;20268;-63
2021/09/02 02:45:40;;;;;;;6.40;3.65;;;12.20;72.70;;;;;;4866864;29;20359;-63
2021/09/02 02:48:46;;;;;;;9.25;3.45;;;12.20;72.80;;;;;;4865720;29;20021;-64
2021/09/02 02:51:52;;;;;;;34.08;23.55;;;12.20;72.60;;;;;;4866454;29;20018;-64
2021/09/02 02:54:27;;;;;;;46.45;31.00;;;12.20;73.20;;;;;;4865214;29;20025;-65
2021/09/02 02:56:54;;;;;;;15.98;6.35;;;12.30;73.50;;;;;;4849508;29;20850;-65
2021/09/02 02:59:20;;;;;;;6.75;3.13;;;12.30;73.30;;;;;;4869502;29;20128;-67
2021/09/02 03:01:46;;;;;;;4.78;2.50;;;12.30;73.20;;;;;;4868140;29;20029;-65
2021/09/02 03:04:13;;;;;;;7.00;2.55;;;12.30;73.10;;;;;;4869670;29;20536;-68
2021/09/02 03:06:40;;;;;;;8.27;2.92;;;12.30;73.10;;;;;;4869997;29;20451;-64
2021/09/02 03:09:06;;;;;;;10.57;3.35;;;12.30;73.10;;;;;;4868685;29;20021;-65
2021/09/02 03:11:33;;;;;;;6.60;3.92;;;12.30;73.20;;;;;;4866284;29;20104;-64
2021/09/02 03:14:00;;;;;;;3.55;1.77;;;12.30;73.00;;;;;;4868242;29;20476;-67
2021/09/02 03:16:27;;;;;;;7.82;3.03;;;12.30;72.50;;;;;;4864376;29;20125;-64
2021/09/02 03:18:53;;;;;;;6.55;3.35;;;12.20;72.00;;;;;;4870867;29;20021;-64
2021/09/02 03:21:20;;;;;;;6.43;2.17;;;12.20;71.80;;;;;;4868379;29;20033;-65
2021/09/02 03:23:46;;;;;;;3.47;1.88;;;12.20;71.80;;;;;;4872289;29;20017;-63
2021/09/02 03:26:13;;;;;;;3.78;2.15;;;12.10;71.70;;;;;;4868361;29;20518;-64
2021/09/02 03:28:40;;;;;;;3.72;1.95;;;12.10;71.70;;;;;;4867258;29;20509;-66
2021/09/02 03:31:06;;;;;;;3.42;1.48;;;12.00;71.70;;;;;;4867229;29;20081;-64
2021/09/02 03:33:33;;;;;;;6.05;1.80;;;12.00;72.00;;;;;;4865840;29;20029;-63
2021/09/02 03:36:00;;;;;;;3.45;1.92;;;12.00;72.00;;;;;;4866666;29;20030;-63
2021/09/02 03:38:26;;;;;;;6.68;2.95;;;11.90;72.30;;;;;;4868149;29;20053;-64
2021/09/02 03:40:53;;;;;;;4.95;2.58;;;11.90;72.50;;;;;;4867194;29;20037;-64
2021/09/02 03:43:20;;;;;;;9.32;3.25;;;11.90;72.90;;;;;;4862211;29;20034;-66
2021/09/02 03:45:48;;;;;;;8.90;3.15;;;11.90;73.10;;;;;;4873496;29;20032;-66
2021/09/02 03:48:15;;;;;;;6.65;2.70;;;11.90;73.40;;;;;;4869929;29;20029;-64
2021/09/02 03:50:41;;;;;;;5.65;2.45;;;11.90;73.40;;;;;;4870898;29;20029;-65
2021/09/02 03:53:08;;;;;;;8.38;2.72;;;11.90;73.60;;;;;;4869544;29;20041;-64
2021/09/02 03:55:34;;;;;;;9.00;2.53;;;11.90;74.20;;;;;;4874377;29;20040;-63
2021/09/02 03:58:40;;;;;;;4.00;2.53;;;11.80;73.70;;;;;;4869653;29;20033;-61
2021/09/02 04:01:46;;;;;;;10.07;6.05;;;11.90;73.80;;;;;;4869781;29;20025;-64
2021/09/02 04:04:52;;;;;;;29.40;16.20;;;11.90;74.00;;;;;;4873809;29;20044;-67
2021/09/02 04:07:59;;;;;;;11.52;5.97;;;11.90;73.80;;;;;;4870269;29;20025;-60
2021/09/02 04:11:05;;;;;;;14.30;5.95;;;11.80;73.40;;;;;;4874593;29;20072;-63
2021/09/02 04:14:11;;;;;;;6.88;2.85;;;11.80;73.30;;;;;;4877880;29;20045;-69
2021/09/02 04:17:17;;;;;;;6.60;2.70;;;11.80;73.30;;;;;;4872371;29;20022;-69
2021/09/02 04:20:23;;;;;;;10.38;2.40;;;11.70;73.30;;;;;;4872891;29;20296;-68
2021/09/02 04:23:29;;;;;;;30.27;20.55;;;11.70;73.70;;;;;;4872413;29;20763;-67
2021/09/02 04:26:35;;;;;;;26.83;14.82;;;11.70;73.80;;;;;;4873556;29;20505;-70
2021/09/02 04:29:41;;;;;;;10.02;3.53;;;11.70;73.60;;;;;;4870575;29;20026;-69
2021/09/02 04:32:48;;;;;;;5.13;1.88;;;11.60;72.90;;;;;;4865914;29;20036;-67
2021/09/02 04:35:54;;;;;;;5.25;2.10;;;11.60;72.90;;;;;;4865261;29;20084;-65
2021/09/02 04:39:00;;;;;;;6.35;2.13;;;11.50;73.10;;;;;;4867347;29;20430;-66
2021/09/02 04:42:06;;;;;;;3.03;1.95;;;11.50;73.10;;;;;;4870230;29;20685;-64
2021/09/02 04:45:15;;;;;;;5.38;2.25;;;11.50;73.30;;;;;;4868107;29;20763;-67
2021/09/02 04:47:41;;;;;;;3.35;2.17;;;11.40;73.10;;;;;;4869142;29;20029;-64
2021/09/02 04:50:11;;;;;;;8.45;2.10;;;11.50;73.20;;;;;;4862556;29;20450;-64
2021/09/02 04:52:37;;;;;;;3.55;2.00;;;11.40;73.50;;;;;;4869621;29;20040;-64
2021/09/02 04:55:44;;;;;;;5.28;2.38;;;11.40;73.50;;;;;;4873329;29;20412;-65
2021/09/02 04:58:50;;;;;;;3.88;1.70;;;11.40;73.50;;;;;;4873270;29;20116;-65
2021/09/02 05:01:56;;;;;;;4.97;1.87;;;11.40;73.30;;;;;;4872838;29;20876;-64
2021/09/02 05:05:02;;;;;;;5.60;1.80;;;11.40;73.30;;;;;;4873303;29;20268;-65
2021/09/02 05:08:08;;;;;;;5.00;1.70;;;11.30;73.40;;;;;;4868753;29;20283;-65
2021/09/02 05:11:14;;;;;;;12.67;3.47;;;11.30;73.50;;;;;;4869135;29;20344;-65
2021/09/02 05:14:20;;;;;;;7.45;2.60;;;11.30;73.70;;;;;;4873424;29;20415;-64
2021/09/02 05:17:26;;;;;;;5.18;2.00;;;11.30;73.90;;;;;;4873340;29;20043;-65
2021/09/02 05:19:53;;;;;;;2.50;1.50;;;11.20;73.90;;;;;;4868048;29;20429;-68
2021/09/02 05:22:20;;;;;;;7.63;1.73;;;11.20;74.20;;;;;;4863980;29;20764;-65
2021/09/02 05:24:46;;;;;;;3.60;1.48;;;11.20;74.20;;;;;;4865011;29;20105;-65
2021/09/02 05:27:14;;;;;;;4.72;1.55;;;11.20;74.30;;;;;;4865483;29;20025;-65
2021/09/02 05:29:41;;;;;;;5.88;1.77;;;11.20;74.20;;;;;;4863987;29;20025;-68
2021/09/02 05:32:08;;;;;;;3.33;1.25;;;11.20;74.30;;;;;;4865494;29;20452;-68
2021/09/02 05:34:35;;;;;;;2.17;1.50;;;11.20;74.50;;;;;;4861915;29;20046;-64
2021/09/02 05:37:02;;;;;;;4.15;1.52;;;11.20;75.20;;;;;;4867245;29;20080;-68
2021/09/02 05:39:28;;;;;;;1.85;1.38;;;11.20;74.60;;;;;;4870420;29;20044;-64
2021/09/02 05:41:55;;;;;;;8.18;2.58;;;11.20;74.60;;;;;;4873466;29;20153;-66
2021/09/02 05:44:22;;;;;;;4.38;2.40;;;11.20;74.70;;;;;;4873867;29;20464;-66
2021/09/02 05:46:48;;;;;;;3.92;2.00;;;11.30;74.90;;;;;;4873336;29;20025;-65
2021/09/02 05:49:15;;;;;;;4.15;2.10;;;11.30;75.00;;;;;;4872048;29;20112;-68
2021/09/02 05:51:42;;;;;;;4.60;1.70;;;11.30;75.20;;;;;;4871177;29;20032;-65
2021/09/02 05:54:08;;;;;;;2.75;1.52;;;11.30;75.70;;;;;;4872327;29;20021;-66
2021/09/02 05:56:35;;;;;;;4.63;1.75;;;11.40;75.80;;;;;;4855008;29;20493;-66
2021/09/02 05:59:02;;;;;;;2.38;1.58;;;11.40;75.90;;;;;;4872470;29;20028;-66
2021/09/02 06:01:28;;;;;;;5.68;2.13;;;11.50;76.10;;;;;;4873959;29;20456;-66
2021/09/02 06:03:54;;;;;;;4.97;1.80;;;11.50;76.30;;;;;;4870955;29;20537;-65
2021/09/02 06:06:21;;;;;;;7.55;3.72;;;11.60;76.50;;;;;;4870384;29;20377;-65
2021/09/02 06:08:47;;;;;;;9.88;3.42;;;11.60;76.30;;;;;;4869263;29;20053;-66
2021/09/02 06:11:14;;;;;;;31.13;5.35;;;11.70;76.10;;;;;;4871833;29;20056;-67
2021/09/02 06:13:40;;;;;;;11.82;5.07;;;11.70;75.90;;;;;;4874927;29;20033;-65
2021/09/02 06:16:07;;;;;;;10.38;4.78;;;11.80;76.20;;;;;;4873919;29;20048;-67
2021/09/02 06:18:34;;;;;;;8.68;4.35;;;11.80;76.00;;;;;;4873532;29;20075;-66
2021/09/02 06:21:00;;;;;;;14.18;4.25;;;11.90;76.20;;;;;;4874394;29;20029;-67
2021/09/02 06:23:26;;;;;;;10.85;5.20;;;11.90;77.10;;;;;;4873076;29;20021;-69
2021/09/02 06:25:53;;;;;;;8.50;4.72;;;12.00;76.60;;;;;;4871192;29;20028;-68
2021/09/02 06:28:20;;;;;;;9.35;4.30;;;12.00;76.70;;;;;;4871943;29;20515;-66
2021/09/02 06:30:46;;;;;;;8.90;3.92;;;12.10;76.90;;;;;;4871924;29;20017;-66
2021/09/02 06:33:13;;;;;;;9.18;4.88;;;12.10;76.90;;;;;;4873689;29;20486;-67
2021/09/02 06:35:39;;;;;;;16.58;4.47;;;12.20;77.00;;;;;;4873570;29;20028;-68
2021/09/02 06:38:06;;;;;;;14.25;5.70;;;12.20;77.00;;;;;;4871662;29;20524;-67
2021/09/02 06:40:33;;;;;;;11.70;4.97;;;12.30;76.90;;;;;;4872074;29;20037;-66
2021/09/02 06:43:01;;;;;;;17.08;5.93;;;12.30;76.40;;;;;;4870971;29;20388;-67
2021/09/02 06:45:28;;;;;;;13.32;6.80;;;12.40;76.00;;;;;;4869876;29;20017;-65
2021/09/02 06:47:55;;;;;;;15.80;7.45;;;12.40;76.00;;;;;;4871528;29;20384;-66
2021/09/02 06:50:21;;;;;;;13.27;7.45;;;12.50;76.90;;;;;;4871300;29;20688;-65
2021/09/02 06:52:48;;;;;;;12.05;6.45;;;12.50;76.40;;;;;;4870995;29;20021;-65
2021/09/02 06:55:15;;;;;;;15.48;7.10;;;12.60;76.40;;;;;;4870559;29;20040;-65
2021/09/02 06:57:41;;;;;;;11.70;6.35;;;12.60;76.30;;;;;;4871688;29;20025;-66
2021/09/02 07:00:09;;;;;;;13.43;6.53;;;12.60;76.30;;;;;;4873126;29;20037;-66
2021/09/02 07:02:36;;;;;;;20.20;6.10;;;12.70;76.40;;;;;;4872568;29;20055;-65
2021/09/02 07:05:04;;;;;;;14.45;6.50;;;12.80;76.40;;;;;;4867938;29;20054;-65
2021/09/02 07:07:31;;;;;;;14.48;6.15;;;12.80;76.30;;;;;;4871227;29;20092;-66
2021/09/02 07:09:58;;;;;;;11.73;4.93;;;12.90;76.30;;;;;;4870319;29;20025;-66
2021/09/02 07:12:25;;;;;;;13.40;5.55;;;12.90;75.60;;;;;;4872236;29;20097;-68
2021/09/02 07:14:51;;;;;;;15.38;5.60;;;13.00;75.00;;;;;;4873206;29;20025;-66
2021/09/02 07:17:18;;;;;;;8.75;5.22;;;13.00;74.70;;;;;;4870564;29;20385;-66
2021/09/02 07:19:44;;;;;;;15.30;5.78;;;13.10;74.30;;;;;;4873484;29;20029;-67
2021/09/02 07:22:11;;;;;;;13.45;5.47;;;13.20;74.30;;;;;;4872994;29;20021;-66
2021/09/02 07:24:37;;;;;;;13.38;5.45;;;13.30;74.30;;;;;;4874871;29;20032;-68
2021/09/02 07:27:04;;;;;;;18.95;6.40;;;13.30;74.00;;;;;;4873029;29;20024;-68
2021/09/02 07:29:31;;;;;;;14.63;5.30;;;13.40;73.80;;;;;;4873981;29;20033;-66
2021/09/02 07:31:58;;;;;;;18.23;8.68;;;13.50;72.80;;;;;;4876519;29;20017;-70
2021/09/02 07:34:25;;;;;;;16.83;8.45;;;13.50;72.70;;;;;;4874943;29;20153;-68
2021/09/02 07:36:51;;;;;;;20.80;9.18;;;13.60;73.10;;;;;;4875285;29;20040;-69
2021/09/02 07:39:18;;;;;;;22.10;9.95;;;13.70;73.60;;;;;;4873441;29;20456;-68
2021/09/02 07:41:44;;;;;;;18.20;8.10;;;13.80;74.00;;;;;;4875228;29;20085;-68
2021/09/02 07:44:11;;;;;;;13.00;6.35;;;13.90;73.90;;;;;;4872664;29;20394;-69
2021/09/02 07:46:37;;;;;;;14.30;6.35;;;14.00;74.10;;;;;;4875821;29;20022;-66
2021/09/02 07:49:04;;;;;;;15.23;5.65;;;14.10;74.00;;;;;;4873743;29;20025;-69
2021/09/02 07:51:30;;;;;;;16.52;5.82;;;14.20;73.40;;;;;;4872779;29;20028;-70
2021/09/02 07:53:57;;;;;;;13.50;5.53;;;14.30;72.00;;;;;;4873361;29;20109;-67
2021/09/02 07:56:23;;;;;;;12.40;5.72;;;14.40;71.90;;;;;;4876583;29;20021;-69
2021/09/02 07:58:50;;;;;;;18.85;6.07;;;14.50;71.40;;;;;;4872128;29;20369;-67
2021/09/02 08:01:22;;;;;;;9.70;5.20;;;14.60;70.90;;;;;;4873538;29;20025;-68
2021/09/02 08:03:49;;;;;;;14.13;4.35;;;14.80;71.10;;;;;;4874025;29;20033;-70
2021/09/02 08:06:16;;;;;;;20.35;5.38;;;14.90;70.10;;;;;;4877418;29;20096;-68
2021/09/02 08:08:42;;;;;;;9.20;4.05;;;15.00;69.60;;;;;;4874653;29;20389;-67
2021/09/02 08:11:09;;;;;;;12.18;3.92;;;15.10;69.50;;;;;;4875341;29;20071;-67
2021/09/02 08:13:35;;;;;;;11.52;3.80;;;15.20;68.90;;;;;;4875741;29;20021;-66
2021/09/02 08:16:02;;;;;;;13.45;4.28;;;15.30;68.50;;;;;;4874598;29;20025;-68
2021/09/02 08:18:28;;;;;;;14.25;6.35;;;15.50;68.90;;;;;;4875530;29;20021;-67
2021/09/02 08:20:55;;;;;;;14.23;4.22;;;15.60;69.10;;;;;;4875063;29;20032;-69
2021/09/02 08:23:21;;;;;;;13.07;4.28;;;15.70;69.80;;;;;;4874090;29;20053;-67
2021/09/02 08:25:48;;;;;;;8.63;3.20;;;15.80;70.70;;;;;;4873215;29;20448;-66
2021/09/02 08:28:15;;;;;;;4.18;2.30;;;16.10;71.50;;;;;;4875610;29;20021;-68
2021/09/02 08:30:42;;;;;;;7.97;2.88;;;16.30;71.70;;;;;;4872492;29;20014;-66
2021/09/02 08:33:08;;;;;;;14.30;3.58;;;16.40;71.00;;;;;;4873890;29;20021;-67
2021/09/02 08:35:35;;;;;;;6.18;1.00;;;16.60;70.50;;;;;;4871382;29;20029;-66
2021/09/02 08:38:09;;;;;;;3.75;1.10;;;16.70;65.10;;;;;;4877604;29;20059;-69
2021/09/02 08:40:41;;;;;;;7.38;1.10;;;17.00;64.20;;;;;;4870877;29;20041;-67
2021/09/02 08:43:08;;;;;;;2.60;1.05;;;17.30;63.30;;;;;;4873473;29;20117;-67
2021/09/02 08:45:34;;;;;;;2.70;1.10;;;17.60;62.40;;;;;;4872171;29;20374;-66
2021/09/02 08:48:01;;;;;;;1.85;1.00;;;17.70;60.30;;;;;;4875271;29;20044;-66
2021/09/02 08:50:32;;;;;;;8.18;2.22;;;17.80;60.60;;;;;;4875086;29;20040;-69
2021/09/02 08:52:58;;;;;;;4.00;1.25;;;17.90;61.60;;;;;;4871394;29;20037;-66
2021/09/02 08:55:25;;;;;;;3.65;1.05;;;18.00;60.40;;;;;;4873575;29;20021;-67
2021/09/02 08:57:53;;;;;;;5.93;1.70;;;18.10;59.80;;;;;;4876915;29;20020;-68
2021/09/02 09:00:21;;;;;;;2.28;1.15;;;18.20;58.70;;;;;;4873602;29;20032;-65
2021/09/02 09:02:55;;;;;;;2.85;1.50;;;18.40;58.20;;;;;;4873905;29;20052;-67
2021/09/02 09:05:21;;;;;;;5.00;2.40;;;18.50;57.60;;;;;;4873028;29;20017;-65
2021/09/02 09:07:50;;;;;;;2.97;2.13;;;18.70;57.80;;;;;;4872555;29;20362;-65
2021/09/02 09:10:25;;;;;;;8.05;2.53;;;18.70;56.80;;;;;;4869304;29;20021;-67
2021/09/02 09:12:55;;;;;;;6.85;2.50;;;18.70;58.40;;;;;;4871914;29;20021;-66
2021/09/02 09:15:33;;;;;;;5.45;2.28;;;18.70;59.20;;;;;;4870494;29;20119;-71
2021/09/02 09:18:19;;;;;;;56.15;7.55;;;18.70;59.40;;;;;;4873232;29;20021;-66
2021/09/02 09:21:03;;;;;;;;;;;18.60;58.70;;;;;;4872492;29;20046;-67
2021/09/02 09:23:54;;;;;;;20.30;4.63;;;18.60;59.20;;;;;;4871539;29;20003;-66
2021/09/02 09:26:22;;;;;;;8.50;1.70;;;18.70;59.60;;;;;;4873980;29;20084;-69
2021/09/02 09:28:49;;;;;;;5.72;2.42;;;18.70;59.80;;;;;;4873290;29;20103;-70
2021/09/02 09:31:45;;;;;;;6.53;1.50;;;18.80;59.90;;;;;;4870119;29;20018;-69
2021/09/02 09:34:11;;;;;;;10.70;3.42;;;18.80;59.70;;;;;;4860832;29;20036;-67
2021/09/02 09:36:39;;;;;;;5.53;1.83;;;18.90;59.10;;;;;;4873649;29;20039;-69
2021/09/02 09:39:06;;;;;;;6.05;1.50;;;19.00;58.00;;;;;;4859329;29;20490;-66
2021/09/02 09:41:47;;;;;;;4.90;1.63;;;19.00;57.10;;;;;;4870366;29;20031;-66
2021/09/02 09:44:26;;;;;;;4.88;1.20;;;19.00;55.70;;;;;;4870210;29;20040;-66
2021/09/02 09:47:16;;;;;;;5.82;1.50;;;19.10;54.80;;;;;;4875952;29;20052;-67
2021/09/02 09:49:51;;;;;;;6.72;1.48;;;19.00;53.50;;;;;;4874178;29;20057;-66
2021/09/02 09:52:22;;;;;;;;;;;19.10;54.10;;;;;;4872750;29;20025;-66
2021/09/02 09:54:48;;;;;;;4.53;1.98;;;19.10;53.80;;;;;;4872156;29;19912;-67
2021/09/02 09:57:15;;;;;;;5.97;1.25;;;19.20;53.60;;;;;;4873187;29;20500;-66
2021/09/02 09:59:43;;;;;;;3.58;1.80;;;19.20;52.80;;;;;;4872642;29;20037;-66
2021/09/02 10:02:10;;;;;;;7.70;1.95;;;19.30;52.70;;;;;;4870277;29;20031;-66
2021/09/02 10:04:38;;;;;;;8.65;1.67;;;19.40;52.90;;;;;;4875866;29;20039;-66
2021/09/02 10:07:05;;;;;;;6.60;1.70;;;19.50;52.10;;;;;;4869209;29;20612;-66
2021/09/02 10:09:35;;;;;;;4.00;2.40;;;19.50;51.90;;;;;;4870343;29;20029;-67
2021/09/02 10:12:03;;;;;;;8.68;1.60;;;19.60;51.40;;;;;;4868182;29;20141;-67
2021/09/02 10:14:30;;;;;;;5.53;1.75;;;19.70;51.90;;;;;;4870681;29;20084;-66
2021/09/02 10:17:00;;;;;;;15.95;2.45;;;19.70;50.70;;;;;;4857475;29;20032;-66
2021/09/02 10:19:31;;;;;;;5.15;1.90;;;19.80;50.70;;;;;;4871875;29;20037;-67
2021/09/02 10:21:57;;;;;;;5.82;1.73;;;19.90;50.30;;;;;;4872708;29;20553;-67
2021/09/02 10:24:39;;;;;;;4.13;1.00;;;20.00;50.40;;;;;;4871347;29;20021;-67
2021/09/02 10:27:18;;;;;;;7.50;1.95;;;20.00;49.20;;;;;;4868033;29;20048;-66
2021/09/02 10:29:45;;;;;;;7.75;2.63;;;19.90;48.80;;;;;;4870350;29;20100;-68
2021/09/02 10:32:24;;;;;;;5.28;1.60;;;19.90;49.20;;;;;;4868479;29;20105;-67
2021/09/02 10:34:51;;;;;;;5.20;1.23;;;20.00;49.60;;;;;;4873504;29;20073;-67
2021/09/02 10:37:40;;;;;;;5.40;2.15;;;20.00;49.90;;;;;;4869430;29;20016;-67
2021/09/02 10:40:29;;;;;;;2.97;1.35;;;20.20;49.70;;;;;;4872049;29;20056;-66
2021/09/02 10:42:57;;;;;;;14.65;1.88;;;20.30;49.00;;;;;;4856095;29;20037;-67
2021/09/02 10:45:27;;;;;;;2.80;1.50;;;20.30;48.90;;;;;;4869316;29;20501;-66
2021/09/02 10:47:55;;;;;;;7.95;1.92;;;20.20;49.00;;;;;;4868040;29;20040;-67
2021/09/02 10:50:25;;;;;;;2.97;1.35;;;20.20;49.00;;;;;;4863447;29;20039;-70
2021/09/02 10:52:52;;;;;;;3.90;1.27;;;20.20;50.30;;;;;;4863918;29;20019;-69
2021/09/02 10:55:47;;;;;;;4.18;2.50;;;20.20;51.20;;;;;;4861787;29;20029;-70
2021/09/02 10:58:33;;;;;;;5.60;1.33;;;20.10;52.40;;;;;;4866679;29;20022;-68
2021/09/02 11:01:22;;;;;;;6.10;1.45;;;20.00;52.60;;;;;;4875675;29;20113;-73
2021/09/02 11:03:51;;;;;;;6.53;1.50;;;19.90;53.60;;;;;;4862826;29;20029;-68
2021/09/02 11:06:17;;;;;;;4.45;1.77;;;19.70;54.20;;;;;;4849737;29;20146;-71
2021/09/02 11:08:44;;;;;;;8.75;1.63;;;19.80;53.80;;;;;;4873228;29;20025;-71
2021/09/02 11:11:17;;;;;;;3.55;1.48;;;19.80;54.00;;;;;;4871214;29;20029;-71
2021/09/02 11:13:46;;;;;;;4.57;1.98;;;19.80;54.30;;;;;;4871713;29;20066;-70
2021/09/02 11:16:15;;;;;;;7.53;1.75;;;19.90;54.70;;;;;;4860917;29;20042;-70
2021/09/02 11:18:50;;;;;;;3.65;1.40;;;19.90;55.10;;;;;;4860755;29;20082;-71
2021/09/02 11:21:25;;;;;;;7.10;1.75;;;20.00;55.20;;;;;;4865019;29;20045;-67
2021/09/02 11:24:00;;;;;;;3.53;1.55;;;20.20;55.40;;;;;;4867367;29;20034;-68
2021/09/02 11:26:40;;;;;;;6.00;1.90;;;20.20;54.70;;;;;;4876859;29;20124;-71
2021/09/02 11:29:09;;;;;;;3.55;1.67;;;20.30;54.60;;;;;;4862835;29;20501;-67
2021/09/02 11:31:36;;;;;;;4.85;1.10;;;20.40;54.40;;;;;;4849932;29;20044;-71
2021/09/02 11:34:03;;;;;;;3.17;1.30;;;20.40;54.10;;;;;;4873094;29;20053;-71
2021/09/02 11:36:30;;;;;;;5.70;1.50;;;20.60;54.50;;;;;;4873511;29;20029;-69
2021/09/02 11:39:09;;;;;;;2.55;1.02;;;20.60;54.00;;;;;;4869973;29;20042;-71
2021/09/02 11:41:36;;;;;;;6.20;1.20;;;20.50;53.80;;;;;;4872410;29;20136;-71
2021/09/02 11:44:02;;;;;;;5.60;1.42;;;20.40;54.90;;;;;;4872011;29;20082;-69
2021/09/02 11:46:29;;;;;;;4.57;1.05;;;20.40;55.30;;;;;;4869612;29;20047;-70
2021/09/02 11:48:58;;;;;;;6.97;1.02;;;20.50;55.40;;;;;;4866302;29;20036;-70
2021/09/02 11:51:33;;;;;;;4.35;1.27;;;20.50;55.30;;;;;;4876503;29;20025;-65
2021/09/02 11:54:08;;;;;;;4.57;1.83;;;20.60;55.30;;;;;;4869819;29;20144;-69
2021/09/02 11:56:35;;;;;;;14.55;2.55;;;20.80;55.50;;;;;;4869352;29;20025;-67
2021/09/02 11:59:04;;;;;;;4.18;1.65;;;20.60;55.30;;;;;;4868161;29;20496;-67
2021/09/02 12:01:30;;;;;;;5.90;1.52;;;20.70;55.50;;;;;;4867933;29;20067;-68
2021/09/02 12:03:57;;;;;;;3.97;0.90;;;20.80;55.40;;;;;;4868517;29;20096;-71
2021/09/02 12:06:27;;;;;;;4.25;1.30;;;20.70;55.60;;;;;;4868571;29;20113;-71
2021/09/02 12:08:57;;;;;;;3.40;1.23;;;20.70;56.00;;;;;;4866986;29;20049;-67
2021/09/02 12:11:24;;;;;;;5.15;1.27;;;20.70;56.00;;;;;;4868691;29;20444;-66
2021/09/02 12:13:54;;;;;;;3.33;1.10;;;20.90;56.10;;;;;;4869362;29;20021;-67
2021/09/02 12:16:25;;;;;;;6.05;1.55;;;21.00;55.50;;;;;;4867855;29;20021;-68
2021/09/02 12:19:01;;;;;;;5.75;1.20;;;21.00;55.10;;;;;;4867586;29;20052;-67
2021/09/02 12:21:30;;;;;;;2.40;1.00;;;20.90;55.60;;;;;;4867051;29;20029;-67
2021/09/02 12:24:14;;;;;;;3.58;1.38;;;20.80;56.00;;;;;;4869539;29;20025;-69
2021/09/02 12:26:54;;;;;;;5.97;1.75;;;21.00;56.20;;;;;;4874670;29;20033;-69
2021/09/02 12:29:23;;;;;;;5.38;1.10;;;21.00;56.60;;;;;;4875410;29;20699;-68
2021/09/02 12:31:52;;;;;;;5.07;1.23;;;21.00;56.40;;;;;;4877677;29;20036;-68
2021/09/02 12:34:29;;;;;;;20.23;3.35;;;21.00;56.60;;;;;;4874657;29;20376;-67
2021/09/02 12:37:03;;;;;;;7.00;2.13;;;20.90;57.00;;;;;;4875195;29;20370;-68
2021/09/02 12:39:46;;;;;;;11.60;2.13;;;21.10;57.40;;;;;;4876714;29;20049;-68
2021/09/02 12:42:21;;;;;;;23.73;3.88;;;21.00;57.70;;;;;;4876702;29;20487;-68
2021/09/02 12:45:19;;;;;;;10.85;2.83;;;20.80;57.50;;;;;;4877462;29;20026;-68
2021/09/02 12:47:58;;;;;;;5.60;1.38;;;20.90;58.30;;;;;;4861688;29;20040;-68
2021/09/02 12:50:27;;;;;;;3.40;1.20;;;20.90;58.70;;;;;;4867831;29;20025;-68
2021/09/02 12:52:53;;;;;;;7.72;1.48;;;20.80;58.60;;;;;;4869069;29;20485;-67
2021/09/02 12:55:20;;;;;;;4.82;2.08;;;20.90;58.90;;;;;;4867030;29;20632;-68
2021/09/02 12:57:48;;;;;;;9.30;1.77;;;20.90;59.10;;;;;;4867483;29;20044;-67
2021/09/02 13:00:16;;;;;;;4.97;1.00;;;20.80;59.40;;;;;;4867658;29;20029;-66
2021/09/02 13:02:44;;;;;;;5.50;1.70;;;20.80;60.50;;;;;;4868067;29;20053;-65
2021/09/02 13:05:12;;;;;;;8.43;1.48;;;20.70;60.40;;;;;;4865849;29;20026;-66
2021/09/02 13:07:56;;;;;;;3.28;1.92;;;20.40;61.90;;;;;;4868027;29;20485;-67
2021/09/02 13:10:31;;;;;;;3.25;1.35;;;20.40;62.50;;;;;;4875149;29;20021;-69
2021/09/02 13:13:00;;;;;;;10.00;2.25;;;20.40;63.40;;;;;;4873688;29;20040;-67
2021/09/02 13:15:27;;;;;;;9.20;2.88;;;20.30;64.40;;;;;;4876735;29;20572;-67
2021/09/02 13:17:55;;;;;;;6.45;1.85;;;20.30;65.90;;;;;;4875229;29;20650;-68
2021/09/02 13:20:22;;;;;;;16.55;2.78;;;20.20;64.10;;;;;;4876413;29;20053;-71
2021/09/02 13:22:50;;;;;;;6.80;1.65;;;20.20;64.90;;;;;;4875962;29;20013;-69